Time;durP1;ratioP1;P1;durP2;ratioP2;P2;SDS_P1;SDS_P2;PMS_P1;PMS_P2;Temp;Humidity;BMP_temperature;BMP_pressure;BME280_temperature;BME280_humidity;BME280_pressure;Samples;Min_cycle;Max_cycle;Signal;HPM_P1;HPM_P2
2021/08/10 00:02:44;;;;;;;3.05;2.63;;;;;;;14.35;69.53;100503.47;10229550;28;20268;-75
2021/08/10 00:07:48;;;;;;;3.58;2.03;;;;;;;14.22;69.45;100495.66;10229177;28;20225;-74
2021/08/10 00:12:52;;;;;;;7.75;2.70;;;;;;;14.15;69.85;100495.41;10229812;29;20221;-75
2021/08/10 00:17:56;;;;;;;2.80;1.95;;;;;;;14.14;69.63;100485.56;10233093;28;20205;-74
2021/08/10 00:22:59;;;;;;;4.78;2.45;;;;;;;14.10;69.61;100494.13;10231974;28;20217;-75
2021/08/10 00:28:04;;;;;;;3.88;2.40;;;;;;;14.04;69.87;100481.19;10232882;28;20198;-75
2021/08/10 00:33:07;;;;;;;4.43;2.60;;;;;;;13.95;69.96;100482.91;10231163;29;20233;-75
2021/08/10 00:38:11;;;;;;;4.45;2.63;;;;;;;13.84;70.39;100478.50;10228637;28;20377;-75
2021/08/10 00:43:34;;;;;;;3.83;2.55;;;;;;;13.76;70.65;100475.66;10230244;29;20308;-77
2021/08/10 00:48:41;;;;;;;2.72;2.30;;;;;;;13.79;70.88;100477.22;10226970;29;20398;-76
2021/08/10 00:53:44;;;;;;;4.30;2.80;;;;;;;13.88;70.78;100479.94;10227112;29;20709;-76
2021/08/10 00:58:52;;;;;;;3.90;2.58;;;;;;;13.92;70.66;100473.25;10229361;29;20209;-75
2021/08/10 01:03:55;;;;;;;4.40;2.63;;;;;;;13.99;70.53;100468.13;10289299;23;20228;-73
2021/08/10 01:09:06;;;;;;;4.32;2.67;;;;;;;14.06;70.47;100463.00;10281518;28;20318;-73
2021/08/10 01:14:21;;;;;;;4.78;2.25;;;;;;;14.08;70.11;100463.72;10265055;28;20227;-73
2021/08/10 01:19:47;;;;;;;5.90;2.72;;;;;;;14.04;70.18;100460.47;10264631;28;20219;-73
2021/08/10 01:24:59;;;;;;;4.30;2.90;;;;;;;14.00;70.20;100468.97;10264666;28;20666;-73
2021/08/10 01:30:11;;;;;;;4.05;2.67;;;;;;;14.00;70.44;100472.53;10264773;28;20599;-73
2021/08/10 01:35:19;;;;;;;5.97;2.92;;;;;;;14.02;70.59;100467.84;10265586;28;20213;-73
2021/08/10 01:40:26;;;;;;;4.63;2.50;;;;;;;14.07;70.55;100468.25;10264756;28;20196;-73
2021/08/10 01:45:36;;;;;;;3.63;2.47;;;;;;;14.09;70.72;100460.00;10279573;28;20708;-73
2021/08/10 01:50:46;;;;;;;2.58;2.17;;;;;;;14.15;70.74;100449.47;10263220;28;20227;-73
2021/08/10 01:55:57;;;;;;;3.45;2.20;;;;;;;14.30;70.53;100443.59;10263501;28;20243;-73
2021/08/10 02:01:07;;;;;;;4.18;1.90;;;;;;;14.41;69.97;100435.34;10280188;28;20200;-73
2021/08/10 02:06:15;;;;;;;5.93;2.55;;;;;;;14.55;69.83;100442.97;10262870;28;20236;-73
2021/08/10 02:11:25;;;;;;;4.25;2.65;;;;;;;14.58;69.65;100452.63;10263098;28;20324;-72
2021/08/10 02:16:33;;;;;;;3.47;2.10;;;;;;;14.52;69.55;100448.66;10262600;28;20221;-72
2021/08/10 02:21:41;;;;;;;3.20;2.50;;;;;;;14.50;69.68;100457.91;10262811;28;20267;-73
2021/08/10 02:26:54;;;;;;;5.70;2.63;;;;;;;14.45;70.03;100460.22;10262406;28;20271;-73
2021/08/10 02:31:57;;;;;;;2.58;2.03;;;;;;;14.51;69.65;100460.50;10266911;28;20224;-73
2021/08/10 02:37:07;;;;;;;4.22;1.95;;;;;;;14.50;69.78;100463.31;10269395;28;20220;-73
2021/08/10 02:42:11;;;;;;;3.00;2.15;;;;;;;14.49;69.85;100467.03;10270830;28;20271;-73
2021/08/10 02:47:14;;;;;;;2.67;2.20;;;;;;;14.48;70.17;100459.91;10268720;28;20287;-73
2021/08/10 02:52:19;;;;;;;2.42;1.92;;;;;;;14.41;70.21;100450.72;10268531;28;20664;-72
2021/08/10 02:57:26;;;;;;;3.42;2.10;;;;;;;14.32;70.51;100442.47;10284577;28;20211;-73
2021/08/10 03:02:35;;;;;;;4.32;2.40;;;;;;;14.24;70.70;100438.78;10284611;28;20220;-73
2021/08/10 03:07:42;;;;;;;5.18;2.63;;;;;;;14.14;71.02;100444.22;10269539;28;20188;-73
2021/08/10 03:12:49;;;;;;;4.32;2.50;;;;;;;14.11;71.39;100444.50;10269876;28;20224;-74
2021/08/10 03:17:58;;;;;;;5.15;2.50;;;;;;;14.11;71.53;100448.06;10267769;28;20231;-73
2021/08/10 03:23:06;;;;;;;4.25;2.53;;;;;;;14.09;71.94;100460.00;10268003;28;20581;-74
2021/08/10 03:28:13;;;;;;;3.20;2.30;;;;;;;14.04;72.12;100467.69;10267819;28;20323;-73
2021/08/10 03:33:17;;;;;;;4.60;2.55;;;;;;;14.06;72.31;100463.00;10267544;28;20233;-74
2021/08/10 03:38:23;;;;;;;4.13;2.80;;;;;;;14.06;72.50;100457.59;10267190;28;20200;-74
2021/08/10 03:43:28;;;;;;;4.18;2.92;;;;;;;13.99;73.25;100448.34;10266569;28;20221;-74
2021/08/10 03:48:36;;;;;;;4.90;3.00;;;;;;;14.15;72.88;100435.97;10283466;28;20205;-74
2021/08/10 03:53:41;;;;;;;6.72;3.75;;;;;;;14.20;72.38;100435.50;10268047;28;20236;-74
2021/08/10 03:58:48;;;;;;;5.72;3.85;;;;;;;14.22;72.42;100449.72;10268014;28;20556;-74
2021/08/10 04:03:56;;;;;;;6.30;3.72;;;;;;;14.09;72.62;100460.00;10266591;28;20651;-73
2021/08/10 04:09:03;;;;;;;4.65;3.08;;;;;;;14.11;73.21;100458.84;10266720;28;20204;-73
2021/08/10 04:14:09;;;;;;;6.22;3.05;;;;;;;14.13;73.14;100448.75;10266485;28;20311;-73
2021/08/10 04:19:14;;;;;;;4.85;3.20;;;;;;;14.13;72.83;100466.84;10266472;28;20288;-74
2021/08/10 04:24:21;;;;;;;6.18;3.55;;;;;;;14.21;72.76;100464.25;10265783;28;20244;-73
2021/08/10 04:29:26;;;;;;;4.25;3.10;;;;;;;14.22;72.43;100468.66;10266196;28;20204;-74
2021/08/10 04:34:29;;;;;;;9.20;3.25;;;;;;;14.24;72.46;100472.06;10265893;28;20721;-73
2021/08/10 04:39:34;;;;;;;5.22;2.55;;;;;;;14.31;72.41;100472.31;10266256;28;20207;-73
2021/08/10 04:44:41;;;;;;;4.53;2.88;;;;;;;14.40;72.14;100473.31;10265796;28;20291;-73
2021/08/10 04:49:44;;;;;;;4.10;2.75;;;;;;;14.41;71.82;100472.34;10265641;28;20287;-74
2021/08/10 04:54:49;;;;;;;4.88;3.20;;;;;;;14.40;72.02;100473.31;10263956;28;20236;-73
2021/08/10 04:59:52;;;;;;;5.65;3.00;;;;;;;14.44;71.91;100469.34;10266449;28;20213;-73
2021/08/10 05:04:55;;;;;;;5.05;2.90;;;;;;;14.46;71.34;100470.88;10265297;28;20231;-73
2021/08/10 05:10:01;;;;;;;5.15;2.78;;;;;;;14.45;71.50;100477.28;10265174;28;20201;-73
2021/08/10 05:15:07;;;;;;;5.57;2.90;;;;;;;14.46;71.36;100481.69;10264860;28;20240;-74
2021/08/10 05:20:12;;;;;;;4.03;2.58;;;;;;;14.42;71.57;100490.25;10264751;28;20662;-73
2021/08/10 05:25:17;;;;;;;3.92;2.58;;;;;;;14.09;72.69;100505.91;10264439;28;20221;-73
2021/08/10 05:30:24;;;;;;;5.70;2.60;;;;;;;14.45;71.47;100516.97;10264480;28;20216;-73
2021/08/10 05:35:27;;;;;;;6.55;2.70;;;;;;;14.49;71.10;100523.81;10264412;28;20259;-73
2021/08/10 05:40:31;;;;;;;3.53;2.90;;;;;;;14.36;71.94;100524.91;10264248;28;20214;-73
2021/08/10 05:45:36;;;;;;;4.78;2.80;;;;;;;14.09;72.63;100544.56;10263810;28;20220;-72
2021/08/10 05:50:41;;;;;;;4.95;2.60;;;;;;;13.98;74.77;100543.88;10263809;28;20681;-73
2021/08/10 05:55:45;;;;;;;6.70;3.08;;;;;;;13.67;76.27;100541.31;10263227;28;20251;-73
2021/08/10 06:00:48;;;;;;;4.90;3.00;;;;;;;13.26;79.18;100530.56;10263529;28;20211;-73
2021/08/10 06:05:51;;;;;;;6.57;3.45;;;;;;;12.87;82.41;100474.81;10264272;28;20247;-74
2021/08/10 06:11:04;;;;;;;8.10;4.00;;;;;;;12.45;85.11;100531.50;10263404;28;20231;-73
2021/08/10 06:16:09;;;;;;;7.75;4.85;;;;;;;12.78;84.77;100538.47;10263154;28;20250;-73
2021/08/10 06:21:14;;;;;;;10.20;4.60;;;;;;;12.84;84.35;100521.78;10263267;28;20201;-73
2021/08/10 06:26:20;;;;;;;8.73;4.18;;;;;;;12.87;84.63;100513.41;10262623;28;20581;-73
2021/08/10 06:31:23;;;;;;;8.85;4.82;;;;;;;12.93;85.23;100512.03;10262966;28;20257;-73
2021/08/10 06:36:28;;;;;;;7.25;4.70;;;;;;;13.16;84.98;100512.66;10262464;28;20553;-73
2021/08/10 06:41:33;;;;;;;6.68;4.10;;;;;;;13.59;86.19;100509.63;10263178;28;20197;-73
2021/08/10 06:46:44;;;;;;;4.93;3.65;;;;;;;13.92;85.98;100507.50;10262269;28;20315;-72
2021/08/10 06:51:47;;;;;;;7.18;4.63;;;;;;;14.20;85.25;100508.47;10262613;28;20228;-72
2021/08/10 06:56:51;;;;;;;6.28;4.38;;;;;;;13.89;85.27;100491.59;10263164;28;20259;-73
2021/08/10 07:01:59;;;;;;;8.27;4.68;;;;;;;13.94;83.08;100486.63;10265564;28;20581;-72
2021/08/10 07:07:02;;;;;;;8.70;4.82;;;;;;;14.18;83.10;100488.88;10262775;28;20212;-72
2021/08/10 07:12:10;;;;;;;8.48;5.15;;;;;;;14.41;81.90;100486.69;10262788;28;20241;-72
2021/08/10 07:17:17;;;;;;;10.38;4.63;;;;;;;14.65;79.05;100486.19;10264887;28;20232;-72
2021/08/10 07:22:20;;;;;;;9.80;5.10;;;;;;;15.10;78.55;100485.38;10269672;28;20260;-72
2021/08/10 07:27:43;;;;;;;9.05;4.80;;;;;;;15.46;74.43;100482.75;10268961;28;20228;-72
2021/08/10 07:32:46;;;;;;;8.48;5.15;;;;;;;15.80;73.20;100491.03;10269213;28;20232;-73
2021/08/10 07:37:50;;;;;;;9.07;4.38;;;;;;;15.96;73.58;100489.47;10268478;28;20216;-73
2021/08/10 07:42:59;;;;;;;9.88;4.40;;;;;;;15.96;72.71;100474.06;10268681;28;20311;-73
2021/08/10 07:48:03;;;;;;;6.28;3.95;;;;;;;16.17;70.60;100484.56;10267990;28;20193;-73
2021/08/10 07:53:12;;;;;;;6.95;3.55;;;;;;;16.08;68.13;100491.78;10268856;28;20236;-73
2021/08/10 07:58:17;;;;;;;6.70;3.40;;;;;;;15.90;68.27;100494.50;10270494;28;20616;-73
2021/08/10 08:03:20;;;;;;;5.18;2.92;;;;;;;16.36;67.92;100494.38;10268768;28;20224;-73
2021/08/10 08:08:25;;;;;;;6.65;4.07;;;;;;;16.36;67.60;100486.25;10267960;28;20201;-74
2021/08/10 08:13:30;;;;;;;4.68;2.83;;;;;;;16.76;66.55;100493.75;10268231;28;20263;-73
2021/08/10 08:18:34;;;;;;;3.85;2.88;;;;;;;16.73;66.12;100506.78;10267840;28;20251;-73
2021/08/10 08:23:38;;;;;;;4.00;2.70;;;;;;;16.85;67.81;100505.50;10268168;28;20216;-73
2021/08/10 08:28:43;;;;;;;5.30;3.13;;;;;;;17.48;66.51;100496.06;10267267;28;20201;-74
2021/08/10 08:33:46;;;;;;;5.68;3.00;;;;;;;17.25;61.21;100490.41;10267315;28;20228;-74
2021/08/10 08:38:49;;;;;;;4.20;3.22;;;;;;;17.42;62.58;100499.47;10267084;28;20232;-74
2021/08/10 08:43:54;;;;;;;4.20;2.60;;;;;;;17.64;62.22;100496.09;10267011;28;20594;-74
2021/08/10 08:48:59;;;;;;;5.75;3.50;;;;;;;17.94;60.10;100504.63;10266815;28;20707;-73
2021/08/10 08:54:05;;;;;;;7.35;4.22;;;;;;;17.86;61.10;100497.31;10266348;28;20256;-74
2021/08/10 08:59:15;;;;;;;4.80;3.55;;;;;;;18.18;60.45;100506.47;10267120;28;20205;-74
2021/08/10 09:04:19;;;;;;;5.15;3.30;;;;;;;18.20;59.55;100498.16;10266319;28;20335;-74
2021/08/10 09:09:30;;;;;;;6.80;4.03;;;;;;;18.14;59.68;100495.13;10266631;28;20247;-74
2021/08/10 09:14:50;;;;;;;4.68;3.53;;;;;;;19.06;57.31;100483.84;10265944;28;20228;-73
2021/08/10 09:20:02;;;;;;;5.75;3.88;;;;;;;19.34;56.66;100480.63;10266264;28;20291;-74
2021/08/10 09:25:15;;;;;;;5.55;3.60;;;;;;;19.69;54.68;100473.75;10265904;28;20212;-74
2021/08/10 09:30:27;;;;;;;5.55;4.00;;;;;;;19.72;53.27;100469.84;10266232;28;20204;-74
2021/08/10 09:35:32;;;;;;;6.97;3.97;;;;;;;19.80;53.30;100473.38;10265244;28;20319;-74
2021/08/10 09:40:44;;;;;;;6.78;4.28;;;;;;;19.93;52.19;100458.25;10266497;28;20204;-74
2021/08/10 09:45:49;;;;;;;7.03;4.50;;;;;;;20.84;50.89;100459.84;10265069;28;20217;-74
2021/08/10 09:51:05;;;;;;;5.13;3.47;;;;;;;20.88;49.77;100474.00;10266229;28;20570;-74
2021/08/10 09:56:09;;;;;;;6.22;4.05;;;;;;;20.86;51.39;100471.44;10265480;28;20228;-74
2021/08/10 10:01:30;;;;;;;4.88;3.70;;;;;;;21.30;47.42;100480.63;10265064;28;20700;-74
2021/08/10 10:06:33;;;;;;;7.03;4.47;;;;;;;20.36;49.50;100458.56;10264450;28;20705;-74
2021/08/10 10:11:38;;;;;;;4.90;4.00;;;;;;;21.74;48.00;100464.06;10264611;28;20197;-74
2021/08/10 10:16:48;;;;;;;8.73;4.53;;;;;;;21.51;46.99;100455.22;10264028;28;20225;-75
2021/08/10 10:21:52;;;;;;;4.90;4.25;;;;;;;20.86;47.83;100465.13;10265735;28;20193;-74
2021/08/10 10:27:00;;;;;;;5.68;3.72;;;;;;;20.23;49.21;100461.88;10265163;28;20208;-74
2021/08/10 10:32:05;;;;;;;6.38;5.03;;;;;;;20.67;48.24;100466.56;10265709;28;20216;-74
2021/08/10 10:37:08;;;;;;;7.18;4.53;;;;;;;21.48;45.49;100451.00;10263831;28;20692;-74
2021/08/10 10:42:16;;;;;;;6.18;5.22;;;;;;;20.74;47.28;100448.41;10265063;28;20188;-74
2021/08/10 10:47:39;;;;;;;6.70;4.57;;;;;;;21.56;45.68;100452.75;10264810;28;20201;-74
2021/08/10 10:53:00;;;;;;;6.60;4.32;;;;;;;20.98;47.30;100448.09;10267609;28;20228;-73
2021/08/10 10:58:26;;;;;;;7.20;5.20;;;;;;;20.33;49.83;100457.91;10271480;28;20196;-73
2021/08/10 11:03:31;;;;;;;6.72;4.97;;;;;;;20.27;50.97;100447.72;10271582;28;20228;-73
2021/08/10 11:08:38;;;;;;;6.30;4.60;;;;;;;20.10;50.98;100451.59;10271557;28;20713;-74
2021/08/10 11:13:41;;;;;;;7.90;4.95;;;;;;;19.86;51.12;100463.59;10271187;28;20224;-74
2021/08/10 11:18:45;;;;;;;8.63;5.43;;;;;;;20.76;50.06;100452.63;10270917;28;20205;-73
2021/08/10 11:23:48;;;;;;;6.03;4.70;;;;;;;20.03;51.09;100451.50;10271063;28;20263;-74
2021/08/10 11:28:51;;;;;;;6.25;4.43;;;;;;;20.11;51.06;100445.13;10270459;28;20197;-74
2021/08/10 11:33:55;;;;;;;4.80;4.40;;;;;;;20.18;51.17;100446.06;10270225;28;20283;-74
2021/08/10 11:39:08;;;;;;;6.60;5.10;;;;;;;20.41;50.81;100440.59;10269892;28;20259;-73
2021/08/10 11:44:19;;;;;;;10.40;5.32;;;;;;;20.31;51.09;100440.03;10269936;28;20221;-73
2021/08/10 11:49:24;;;;;;;7.32;4.70;;;;;;;20.98;49.65;100439.91;10269963;28;20192;-73
2021/08/10 11:54:27;;;;;;;5.97;5.03;;;;;;;21.32;48.34;100432.13;10269311;28;20628;-74
2021/08/10 11:59:29;;;;;;;6.53;5.03;;;;;;;22.61;45.26;100451.09;10268629;28;20280;-74
2021/08/10 12:04:38;;;;;;;7.07;4.82;;;;;;;23.89;42.73;100430.25;10268873;28;20220;-74
2021/08/10 12:09:43;;;;;;;6.57;5.20;;;;;;;23.75;41.85;100432.09;10269421;28;20192;-74
2021/08/10 12:14:46;;;;;;;6.20;5.10;;;;;;;22.95;44.82;100431.03;10269039;28;20626;-74
2021/08/10 12:19:50;;;;;;;5.78;4.55;;;;;;;22.62;44.27;100428.97;10269180;28;20205;-73
2021/08/10 12:24:56;;;;;;;6.68;4.65;;;;;;;22.10;45.88;100428.44;10268758;28;20267;-73
2021/08/10 12:30:00;;;;;;;6.43;4.93;;;;;;;20.75;48.66;100439.16;10269220;28;20610;-74
2021/08/10 12:35:12;;;;;;;7.95;4.95;;;;;;;20.98;49.12;100426.25;10268749;28;20227;-75
2021/08/10 12:40:15;;;;;;;6.72;4.70;;;;;;;21.98;46.52;100424.56;10268757;28;20264;-74
2021/08/10 12:45:19;;;;;;;7.38;4.22;;;;;;;23.80;41.14;100407.63;10267679;28;20212;-74
2021/08/10 12:50:25;;;;;;;5.45;4.35;;;;;;;22.30;44.16;100411.31;10268002;28;20280;-74
2021/08/10 12:55:48;;;;;;;5.85;3.90;;;;;;;23.42;42.79;100390.91;10267099;28;20239;-75
2021/08/10 13:01:01;;;;;;;5.20;3.70;;;;;;;22.20;45.07;100410.81;10267792;28;20208;-74
2021/08/10 13:06:06;;;;;;;5.68;4.43;;;;;;;21.04;47.20;100408.28;10267908;23;20308;-76
2021/08/10 13:11:20;;;;;;;8.18;4.82;;;;;;;20.56;48.78;100402.38;10231116;29;20201;-75
2021/08/10 13:16:35;;;;;;;7.28;5.30;;;;;;;20.12;49.63;100400.47;10221947;28;20239;-75
2021/08/10 13:21:52;;;;;;;8.43;5.28;;;;;;;20.48;49.76;100402.47;10190614;29;20214;-75
2021/08/10 13:26:55;;;;;;;6.57;5.15;;;;;;;20.91;48.83;100392.53;10190703;29;20225;-75
2021/08/10 13:31:58;;;;;;;9.05;5.70;;;;;;;20.93;48.82;100393.19;10189982;29;20206;-76
2021/08/10 13:37:02;;;;;;;6.90;5.18;;;;;;;21.13;48.54;100384.41;10189814;29;20234;-75
2021/08/10 13:42:05;;;;;;;6.75;5.28;;;;;;;21.82;46.67;100400.22;10190258;29;20257;-75
2021/08/10 13:47:08;;;;;;;5.30;4.30;;;;;;;21.66;46.50;100385.75;10191042;29;20221;-75
2021/08/10 13:52:12;;;;;;;6.35;4.57;;;;;;;22.31;44.79;100372.78;10191252;29;20249;-74
2021/08/10 13:57:16;;;;;;;6.25;4.45;;;;;;;21.42;46.41;100402.59;10190875;29;20221;-75
2021/08/10 14:02:20;;;;;;;6.88;4.93;;;;;;;21.33;47.42;100371.78;10195575;29;20198;-75
2021/08/10 14:07:24;;;;;;;5.72;4.70;;;;;;;24.32;42.74;100369.38;10192194;29;20229;-75
2021/08/10 14:12:27;;;;;;;5.72;4.63;;;;;;;24.48;40.94;100362.59;10191354;29;20210;-75
2021/08/10 14:17:30;;;;;;;5.95;4.72;;;;;;;22.85;44.29;100364.88;10191506;29;20241;-75
2021/08/10 14:22:35;;;;;;;6.72;4.55;;;;;;;21.78;46.80;100377.91;10190103;29;20663;-75
2021/08/10 14:27:38;;;;;;;5.90;4.88;;;;;;;21.57;47.87;100380.66;10193688;29;20229;-75
2021/08/10 14:32:41;;;;;;;8.70;4.60;;;;;;;22.67;45.33;100369.00;10198096;29;20198;-76
2021/08/10 14:37:45;;;;;;;4.75;4.25;;;;;;;22.15;46.63;100369.53;10197565;29;20217;-75
2021/08/10 14:42:48;;;;;;;5.53;4.00;;;;;;;23.26;43.83;100355.69;10198416;29;20214;-74
2021/08/10 14:47:52;;;;;;;5.75;3.70;;;;;;;23.49;41.20;100363.53;10199311;29;20273;-75
2021/08/10 14:52:56;;;;;;;4.35;3.80;;;;;;;23.96;41.40;100351.50;10218348;29;20218;-74
2021/08/10 14:58:00;;;;;;;4.80;3.88;;;;;;;24.27;40.93;100345.34;10215615;29;20746;-76
2021/08/10 15:03:03;;;;;;;4.30;3.90;;;;;;;24.36;41.12;100347.84;10207282;29;20245;-74
2021/08/10 15:08:08;;;;;;;6.93;4.65;;;;;;;22.38;44.91;100363.75;10202789;29;20206;-75
2021/08/10 15:13:11;;;;;;;4.80;4.10;;;;;;;22.06;46.41;100360.66;10201016;29;20225;-74
2021/08/10 15:18:15;;;;;;;3.65;3.28;;;;;;;21.40;47.08;100350.03;10229261;28;20210;-75
2021/08/10 15:23:19;;;;;;;5.55;3.72;;;;;;;21.35;48.03;100360.69;10196568;29;20214;-74
2021/08/10 15:28:22;;;;;;;5.53;3.22;;;;;;;20.86;49.46;100358.66;10196192;29;20663;-74
2021/08/10 15:33:25;;;;;;;5.55;3.78;;;;;;;19.21;56.92;100380.47;10197102;29;20249;-75
2021/08/10 15:38:29;;;;;;;5.68;3.80;;;;;;;17.74;63.08;100373.66;10195575;29;20213;-74
2021/08/10 15:43:33;;;;;;;5.60;3.55;;;;;;;18.01;60.76;100391.50;10194862;29;20222;-75
2021/08/10 15:48:40;;;;;;;4.05;3.50;;;;;;;18.23;61.04;100389.91;10197432;29;20201;-74
2021/08/10 15:53:44;;;;;;;5.93;4.25;;;;;;;18.42;60.52;100393.28;10195360;29;20305;-74
2021/08/10 15:58:47;;;;;;;5.18;3.85;;;;;;;18.31;60.89;100405.38;10198219;29;20190;-76
2021/08/10 16:03:50;;;;;;;5.00;4.13;;;;;;;18.27;61.28;100409.47;10226749;28;20234;-73
2021/08/10 16:08:54;;;;;;;7.00;4.30;;;;;;;18.22;61.34;100430.88;10193790;29;20202;-76
2021/08/10 16:13:57;;;;;;;6.38;4.10;;;;;;;17.64;61.80;100424.63;10196399;29;20210;-75
2021/08/10 16:19:00;;;;;;;6.35;4.60;;;;;;;17.82;63.76;100441.59;10192575;29;20238;-74
2021/08/10 16:24:05;;;;;;;7.05;4.82;;;;;;;16.92;68.88;100452.28;10191805;29;20688;-74
2021/08/10 16:29:09;;;;;;;6.50;5.28;;;;;;;16.05;74.63;100435.19;10191396;29;20253;-74
2021/08/10 16:34:12;;;;;;;9.13;5.75;;;;;;;15.41;79.94;100447.16;10191815;29;20241;-76
2021/08/10 16:39:16;;;;;;;7.75;5.55;;;;;;;14.94;79.64;100445.47;10194837;29;20244;-78
2021/08/10 16:44:19;;;;;;;6.70;5.28;;;;;;;14.97;81.63;100449.72;10192642;29;20228;-76
2021/08/10 16:49:22;;;;;;;10.90;6.07;;;;;;;15.12;82.06;100431.97;10194445;29;20265;-76
2021/08/10 16:54:26;;;;;;;7.68;5.63;;;;;;;15.02;82.39;100423.06;10193548;29;20225;-77
2021/08/10 16:59:29;;;;;;;8.85;6.30;;;;;;;15.07;84.71;100439.69;10190758;29;20206;-76
2021/08/10 17:04:32;;;;;;;8.82;7.32;;;;;;;17.54;87.67;100432.94;10189246;29;20637;-76
2021/08/10 17:09:36;;;;;;;10.98;8.05;;;;;;;18.57;76.71;100451.38;10188237;29;20214;-75
2021/08/10 17:14:38;;;;;;;9.07;6.20;;;;;;;17.19;76.41;100447.63;10189210;29;20285;-75
2021/08/10 17:19:42;;;;;;;7.63;6.45;;;;;;;17.28;80.89;100443.06;10189331;29;20288;-73
2021/08/10 17:24:48;;;;;;;9.30;5.63;;;;;;;17.30;78.62;100435.63;10188740;29;20214;-75
2021/08/10 17:29:51;;;;;;;9.52;5.47;;;;;;;17.24;78.45;100440.69;10189017;29;20209;-75
2021/08/10 17:34:59;;;;;;;7.18;5.00;;;;;;;18.02;79.90;100450.28;10188293;29;20220;-75
2021/08/10 17:40:04;;;;;;;8.00;5.85;;;;;;;19.80;76.63;100453.41;10189426;29;20264;-75
2021/08/10 17:45:08;;;;;;;9.15;5.63;;;;;;;19.49;71.11;100440.69;10187040;29;20273;-74
2021/08/10 17:50:11;;;;;;;10.15;6.10;;;;;;;18.88;73.39;100448.72;10188481;29;20241;-74
2021/08/10 17:55:15;;;;;;;8.65;5.03;;;;;;;19.88;71.97;100439.72;10187974;29;20230;-76
2021/08/10 18:00:19;;;;;;;8.73;4.82;;;;;;;18.89;76.12;100444.94;10190419;29;20257;-74
2021/08/10 18:05:24;;;;;;;6.40;4.57;;;;;;;17.98;77.00;100443.47;10187388;29;20227;-75
2021/08/10 18:10:28;;;;;;;4.53;4.03;;;;;;;17.49;74.66;100446.16;10187973;29;20743;-75
2021/08/10 18:15:31;;;;;;;4.57;3.85;;;;;;;16.74;75.49;100459.69;10187386;29;20222;-75
2021/08/10 18:20:34;;;;;;;5.18;4.20;;;;;;;16.64;76.88;100457.06;10187550;29;20608;-75
2021/08/10 18:25:38;;;;;;;6.57;3.70;;;;;;;16.65;78.26;100461.50;10188643;29;20260;-75
2021/08/10 18:30:41;;;;;;;7.13;4.65;;;;;;;16.53;78.91;100462.78;10187753;29;20205;-75
2021/08/10 18:35:44;;;;;;;6.90;4.13;;;;;;;16.51;79.69;100471.09;10186713;29;20269;-75
2021/08/10 18:41:00;;;;;;;5.78;4.72;;;;;;;16.55;80.94;100487.88;10187068;29;20234;-74
2021/08/10 18:46:03;;;;;;;6.60;4.72;;;;;;;16.57;81.54;100481.28;10186501;29;20297;-75
2021/08/10 18:51:07;;;;;;;5.22;4.72;;;;;;;16.37;79.90;100485.22;10186700;29;20574;-75
2021/08/10 18:56:11;;;;;;;6.55;4.05;;;;;;;15.92;78.47;100491.66;10186743;29;20217;-75
2021/08/10 19:01:14;;;;;;;6.13;3.60;;;;;;;15.69;78.97;100489.44;10186576;29;20213;-75
2021/08/10 19:06:17;;;;;;;4.15;3.75;;;;;;;15.56;79.45;100497.06;10294092;23;20290;-72
2021/08/10 19:11:22;;;;;;;5.60;4.10;;;;;;;15.39;79.44;100495.22;10305952;28;20196;-72
2021/08/10 19:16:24;;;;;;;5.50;4.10;;;;;;;15.26;79.39;100514.50;10284208;28;20224;-72
2021/08/10 19:21:27;;;;;;;5.50;3.95;;;;;;;15.20;79.78;100501.56;10272649;28;20196;-73
2021/08/10 19:26:32;;;;;;;5.90;3.67;;;;;;;15.10;79.44;100519.72;10271079;28;20205;-72
2021/08/10 19:31:34;;;;;;;7.50;4.20;;;;;;;15.13;79.88;100512.13;10271042;28;20204;-72
2021/08/10 19:36:37;;;;;;;7.57;4.18;;;;;;;15.11;79.16;100516.88;10270140;28;20220;-73
2021/08/10 19:41:42;;;;;;;6.20;4.00;;;;;;;15.04;79.50;100519.31;10270673;28;20205;-72
2021/08/10 19:46:44;;;;;;;4.95;4.05;;;;;;;15.01;79.92;100526.88;10284055;28;20697;-73
2021/08/10 19:51:47;;;;;;;5.53;4.22;;;;;;;14.98;79.72;100538.84;10269532;28;20196;-73
2021/08/10 19:56:52;;;;;;;7.88;5.20;;;;;;;14.93;79.83;100545.72;10269277;28;20705;-73
2021/08/10 20:01:57;;;;;;;6.22;4.50;;;;;;;14.87;79.46;100538.19;10268548;28;20209;-73
2021/08/10 20:07:00;;;;;;;6.55;4.63;;;;;;;14.87;79.73;100549.84;10269097;28;20224;-73
2021/08/10 20:12:05;;;;;;;7.03;4.60;;;;;;;14.77;79.31;100562.56;10269447;28;20299;-73
2021/08/10 20:17:07;;;;;;;7.60;5.35;;;;;;;14.73;79.47;100555.75;10268539;28;20693;-73
2021/08/10 20:22:10;;;;;;;7.63;5.05;;;;;;;14.69;79.11;100562.44;10268826;28;20240;-73
2021/08/10 20:27:16;;;;;;;9.35;5.75;;;;;;;14.67;79.11;100567.13;10269053;28;20223;-73
2021/08/10 20:32:19;;;;;;;8.10;4.90;;;;;;;14.58;79.14;100569.72;10269115;28;20512;-74
2021/08/10 20:37:22;;;;;;;8.43;4.72;;;;;;;14.46;78.80;100573.59;10270779;28;20307;-73
2021/08/10 20:42:26;;;;;;;7.53;4.63;;;;;;;14.45;78.90;100573.72;10269991;28;20216;-73
2021/08/10 20:47:29;;;;;;;9.45;5.65;;;;;;;14.43;79.22;100575.75;10267680;28;20209;-72
2021/08/10 20:52:32;;;;;;;8.50;5.65;;;;;;;14.38;78.95;100574.31;10267822;28;20193;-72
2021/08/10 20:57:36;;;;;;;6.68;4.57;;;;;;;14.30;79.32;100579.56;10267022;28;20773;-72
2021/08/10 21:02:39;;;;;;;6.97;5.13;;;;;;;14.28;79.47;100578.84;10267333;28;20284;-72
2021/08/10 21:07:42;;;;;;;6.93;4.85;;;;;;;14.27;79.52;100585.25;10267098;28;20287;-72
2021/08/10 21:12:46;;;;;;;7.10;4.88;;;;;;;14.22;79.76;100592.06;10266646;28;20252;-72
2021/08/10 21:17:49;;;;;;;7.75;5.13;;;;;;;14.12;80.11;100589.38;10266393;28;20251;-73
2021/08/10 21:22:52;;;;;;;7.40;5.28;;;;;;;14.13;79.98;100600.03;10267606;28;20680;-73
2021/08/10 21:27:57;;;;;;;7.70;4.90;;;;;;;14.03;80.13;100611.84;10266323;28;20283;-74
2021/08/10 21:33:00;;;;;;;9.45;5.93;;;;;;;14.04;80.32;100602.72;10266425;28;20193;-74
2021/08/10 21:38:03;;;;;;;9.82;5.55;;;;;;;14.07;80.02;100607.84;10264623;28;20701;-73
2021/08/10 21:43:07;;;;;;;8.48;5.55;;;;;;;14.04;79.91;100609.00;10265855;28;20249;-74
2021/08/10 21:48:09;;;;;;;8.52;5.50;;;;;;;14.06;79.91;100622.34;10266941;28;20193;-74
2021/08/10 21:53:13;;;;;;;9.55;5.57;;;;;;;14.04;79.81;100616.22;10265715;28;20291;-74
2021/08/10 21:58:17;;;;;;;8.77;5.35;;;;;;;14.00;79.95;100614.81;10265291;28;20228;-74
2021/08/10 22:03:20;;;;;;;10.60;6.15;;;;;;;14.03;80.09;100622.63;10265231;28;20220;-74
2021/08/10 22:08:23;;;;;;;11.23;6.35;;;;;;;13.97;80.24;100629.47;10265062;28;20197;-73
2021/08/10 22:13:27;;;;;;;13.05;7.28;;;;;;;13.96;80.05;100630.47;10265061;28;20254;-74
2021/08/10 22:18:30;;;;;;;13.45;7.07;;;;;;;13.88;80.37;100630.31;10264426;28;20223;-73
2021/08/10 22:23:33;;;;;;;11.25;7.68;;;;;;;13.83;80.49;100633.41;10264478;28;20267;-74
2021/08/10 22:28:37;;;;;;;11.55;7.40;;;;;;;13.87;80.42;100637.53;10264513;28;20201;-73
2021/08/10 22:33:40;;;;;;;14.63;8.02;;;;;;;13.84;80.62;100648.63;10263594;28;20278;-74
2021/08/10 22:38:43;;;;;;;13.25;7.95;;;;;;;13.85;80.73;100646.75;10264371;28;20216;-74
2021/08/10 22:43:47;;;;;;;14.23;8.45;;;;;;;13.85;80.90;100660.25;10264546;28;20701;-74
2021/08/10 22:48:50;;;;;;;13.88;7.40;;;;;;;13.91;80.69;100657.88;10268456;28;20196;-74
2021/08/10 22:53:53;;;;;;;12.68;7.43;;;;;;;13.96;80.70;100657.47;10271570;28;20463;-73
2021/08/10 22:58:57;;;;;;;12.70;8.45;;;;;;;14.02;80.40;100673.09;10271289;28;20267;-73
2021/08/10 23:04:00;;;;;;;13.00;8.00;;;;;;;14.01;80.20;100668.69;10270561;28;20224;-74
2021/08/10 23:09:05;;;;;;;11.13;6.90;;;;;;;13.92;79.85;100669.53;10271205;28;20200;-73
2021/08/10 23:14:09;;;;;;;13.57;7.32;;;;;;;13.87;79.75;100674.47;10270493;28;20212;-73
2021/08/10 23:19:12;;;;;;;11.93;6.90;;;;;;;13.88;79.19;100660.84;10270706;28;20224;-75
2021/08/10 23:24:14;;;;;;;14.65;7.70;;;;;;;13.94;79.12;100659.44;10270480;28;20776;-74